Time;durP1;ratioP1;P1;durP2;ratioP2;P2;SDS_P1;SDS_P2;PMS_P1;PMS_P2;Temp;Humidity;BMP_temperature;BMP_pressure;BME280_temperature;BME280_humidity;BME280_pressure;Samples;Min_cycle;Max_cycle;Signal;HPM_P1;HPM_P2
2022/09/16 00:00:59;;;;;;;15.00;6.22;;;12.00;99.90;;;;;;4989794;28;20040;-84
2022/09/16 00:03:24;;;;;;;18.70;6.40;;;12.00;99.90;;;;;;4995024;28;20030;-84
2022/09/16 00:06:16;;;;;;;11.25;6.00;;;11.90;99.90;;;;;;4990976;28;20598;-83
2022/09/16 00:08:43;;;;;;;13.10;6.05;;;11.90;99.90;;;;;;5005138;28;20363;-83
2022/09/16 00:11:08;;;;;;;10.43;6.15;;;11.80;99.90;;;;;;4991212;28;20034;-83
2022/09/16 00:13:34;;;;;;;9.02;5.47;;;11.80;99.90;;;;;;4991986;28;20041;-83
2022/09/16 00:16:23;;;;;;;13.95;6.13;;;11.80;99.90;;;;;;4992290;28;20030;-83
2022/09/16 00:18:54;;;;;;;9.27;5.47;;;11.80;99.90;;;;;;4990025;28;20693;-84
2022/09/16 00:21:20;;;;;;;11.95;5.75;;;11.80;99.90;;;;;;4991464;28;20125;-84
2022/09/16 00:23:46;;;;;;;15.70;5.55;;;11.80;99.90;;;;;;4991591;28;20478;-83
2022/09/16 00:26:12;;;;;;;13.55;6.07;;;11.70;99.90;;;;;;4993365;28;20019;-84
2022/09/16 00:28:38;;;;;;;10.43;5.85;;;11.70;99.90;;;;;;4992515;28;20532;-83
2022/09/16 00:31:04;;;;;;;11.35;5.82;;;11.70;99.90;;;;;;4984175;28;20033;-83
2022/09/16 00:33:30;;;;;;;12.05;6.05;;;11.70;99.90;;;;;;4992600;28;20030;-83
2022/09/16 00:36:21;;;;;;;13.15;5.82;;;11.60;99.90;;;;;;4991930;28;20378;-83
2022/09/16 00:38:51;;;;;;;10.52;5.53;;;11.60;99.90;;;;;;4992709;28;20041;-83
2022/09/16 00:41:20;;;;;;;10.38;4.88;;;11.60;99.90;;;;;;4992038;28;20027;-83
2022/09/16 00:44:00;;;;;;;12.07;5.20;;;11.50;99.90;;;;;;4991571;28;20121;-83
2022/09/16 00:46:38;;;;;;;9.13;4.53;;;11.50;99.90;;;;;;4991896;28;20031;-84
2022/09/16 00:49:14;;;;;;;10.43;4.93;;;11.40;99.90;;;;;;4989115;28;20046;-83
2022/09/16 00:51:41;;;;;;;8.15;4.30;;;11.30;99.90;;;;;;4991752;28;20050;-83
2022/09/16 00:54:36;;;;;;;8.77;4.70;;;11.30;99.90;;;;;;4990693;28;20027;-84
2022/09/16 00:57:03;;;;;;;6.43;4.15;;;11.30;99.90;;;;;;4991350;28;20561;-83
2022/09/16 00:59:32;;;;;;;7.53;4.13;;;11.30;99.90;;;;;;4991950;28;20113;-83
2022/09/16 01:02:03;;;;;;;11.77;4.70;;;11.30;99.90;;;;;;4995032;28;20038;-83
2022/09/16 01:04:36;;;;;;;8.23;4.45;;;11.30;99.90;;;;;;4995367;28;20081;-83
2022/09/16 01:07:34;;;;;;;6.78;4.18;;;11.20;99.90;;;;;;4995397;28;20030;-83
2022/09/16 01:10:00;;;;;;;11.18;4.65;;;11.20;99.90;;;;;;4978433;28;20389;-84
2022/09/16 01:12:29;;;;;;;13.30;4.13;;;11.20;99.90;;;;;;4995151;28;20015;-83
2022/09/16 01:14:57;;;;;;;6.60;4.07;;;11.20;99.90;;;;;;4993601;28;20389;-83
2022/09/16 01:17:53;;;;;;;8.48;5.70;;;11.30;99.90;;;;;;4995032;28;20030;-83
2022/09/16 01:20:41;;;;;;;9.45;4.15;;;11.20;99.90;;;;;;4973073;28;20038;-82
2022/09/16 01:23:37;;;;;;;7.35;3.65;;;11.20;99.90;;;;;;5010996;28;20033;-83
2022/09/16 01:26:27;;;;;;;7.55;3.80;;;11.30;99.90;;;;;;4995156;28;20030;-83
2022/09/16 01:29:12;;;;;;;11.43;4.20;;;11.30;99.90;;;;;;4993020;28;20034;-83
2022/09/16 01:31:46;;;;;;;19.10;4.68;;;11.20;99.90;;;;;;4978382;28;20023;-83
2022/09/16 01:34:52;;;;;;;8.38;3.95;;;11.20;99.90;;;;;;4987329;28;20034;-83
2022/09/16 01:37:37;;;;;;;9.98;4.28;;;11.10;99.90;;;;;;4977843;28;20049;-83
2022/09/16 01:43:54;;;;;;;20.13;5.47;;;11.10;99.90;;;;;;4992414;28;20057;-83
2022/09/16 01:46:29;;;;;;;8.57;4.95;;;11.10;99.90;;;;;;4977873;28;20066;-83
2022/09/16 01:49:04;;;;;;;10.25;4.90;;;11.00;99.90;;;;;;4993647;28;20030;-83
2022/09/16 01:51:40;;;;;;;7.70;4.80;;;11.00;99.90;;;;;;4994031;28;20030;-83
2022/09/16 01:54:14;;;;;;;7.78;5.00;;;11.00;99.90;;;;;;5012879;28;20712;-83
2022/09/16 01:56:48;;;;;;;9.07;5.43;;;10.90;99.90;;;;;;4997653;28;20038;-83
2022/09/16 01:59:41;;;;;;;9.57;5.28;;;10.90;99.90;;;;;;4994207;28;20422;-83
2022/09/16 02:02:15;;;;;;;13.18;5.88;;;10.90;99.90;;;;;;4970869;28;20034;-83
2022/09/16 02:04:50;;;;;;;17.10;5.63;;;10.90;99.90;;;;;;4999082;28;20125;-83
2022/09/16 02:07:19;;;;;;;28.27;6.95;;;11.00;99.90;;;;;;4994507;28;20042;-83
2022/09/16 02:09:51;;;;;;;10.10;5.80;;;11.00;99.90;;;;;;4993774;28;20034;-83
2022/09/16 02:12:24;;;;;;;11.43;5.22;;;10.90;99.90;;;;;;4993852;28;20057;-83
2022/09/16 02:14:53;;;;;;;14.20;4.95;;;11.00;99.90;;;;;;4993645;28;20367;-83
2022/09/16 02:17:23;;;;;;;13.27;5.38;;;11.10;99.90;;;;;;4993734;28;20026;-86
2022/09/16 02:19:59;;;;;;;17.52;5.30;;;11.10;99.90;;;;;;4993692;28;20457;-86
2022/09/16 02:22:31;;;;;;;13.93;4.75;;;11.10;99.90;;;;;;4993917;28;20030;-83
2022/09/16 02:24:59;;;;;;;10.60;5.07;;;11.10;99.90;;;;;;4993328;28;20422;-83
2022/09/16 02:27:26;;;;;;;10.48;4.53;;;11.10;99.90;;;;;;4993505;28;20386;-83
2022/09/16 02:30:01;;;;;;;11.30;4.57;;;11.10;99.90;;;;;;4993159;28;20030;-83
2022/09/16 02:32:30;;;;;;;13.48;4.72;;;11.10;99.90;;;;;;4993265;28;20042;-83
2022/09/16 02:34:57;;;;;;;10.00;4.55;;;11.10;99.90;;;;;;4992608;28;20080;-83
2022/09/16 02:37:29;;;;;;;15.80;4.60;;;11.10;99.90;;;;;;4993043;28;20121;-83
2022/09/16 02:40:11;;;;;;;7.95;3.88;;;11.10;99.90;;;;;;4976905;28;20654;-84
2022/09/16 02:42:37;;;;;;;13.65;4.20;;;11.10;99.90;;;;;;4993344;28;20030;-83
2022/09/16 02:45:04;;;;;;;10.15;4.00;;;11.10;99.90;;;;;;4992984;28;20557;-83
2022/09/16 02:47:40;;;;;;;8.18;4.13;;;11.10;99.90;;;;;;4993020;28;20756;-83
2022/09/16 02:50:09;;;;;;;9.65;4.05;;;11.10;99.90;;;;;;4986590;28;20714;-83
2022/09/16 02:52:43;;;;;;;7.18;3.55;;;11.10;99.90;;;;;;4976693;28;20030;-83
2022/09/16 02:55:46;;;;;;;11.32;3.83;;;11.10;99.90;;;;;;4969526;28;20034;-83
2022/09/16 02:58:12;;;;;;;14.48;4.18;;;11.10;99.90;;;;;;4986254;28;20085;-83
2022/09/16 03:00:43;;;;;;;13.88;4.13;;;11.10;99.90;;;;;;4992913;28;20034;-86
2022/09/16 03:03:09;;;;;;;9.70;3.97;;;11.00;99.90;;;;;;4985769;28;20116;-83
2022/09/16 03:05:34;;;;;;;8.65;4.13;;;11.00;99.90;;;;;;4993062;28;20035;-83
2022/09/16 03:08:05;;;;;;;7.70;3.78;;;11.00;99.90;;;;;;4992289;28;20374;-83
2022/09/16 03:10:43;;;;;;;7.57;3.53;;;11.00;99.90;;;;;;4992671;28;20130;-83
2022/09/16 03:13:25;;;;;;;9.65;3.97;;;11.00;99.90;;;;;;4994109;28;20405;-83
2022/09/16 03:16:04;;;;;;;8.95;3.50;;;11.10;99.90;;;;;;4992783;28;20035;-83
2022/09/16 03:19:16;;;;;;;7.57;3.80;;;11.10;99.90;;;;;;4972137;28;20030;-83
2022/09/16 03:22:04;;;;;;;14.63;3.97;;;11.00;99.90;;;;;;4971086;28;20043;-84
2022/09/16 03:24:45;;;;;;;14.85;3.72;;;11.00;99.90;;;;;;4994036;28;20042;-83
2022/09/16 03:27:17;;;;;;;10.82;3.95;;;11.00;99.90;;;;;;4985967;28;20037;-83
2022/09/16 03:30:03;;;;;;;12.77;4.22;;;11.00;99.90;;;;;;4992621;28;20469;-83
2022/09/16 03:32:53;;;;;;;14.25;4.05;;;11.00;99.90;;;;;;4983973;28;20041;-83
2022/09/16 03:35:35;;;;;;;11.85;4.05;;;11.00;99.90;;;;;;4971449;28;20490;-83
2022/09/16 03:38:02;;;;;;;9.30;4.15;;;11.00;99.90;;;;;;4993832;28;20073;-83
2022/09/16 03:40:31;;;;;;;12.77;4.40;;;10.90;99.90;;;;;;4992124;28;20100;-83
2022/09/16 03:42:57;;;;;;;7.25;3.63;;;11.00;99.90;;;;;;4991609;28;20125;-83
2022/09/16 03:45:23;;;;;;;9.27;4.15;;;11.00;99.90;;;;;;4991894;28;20053;-83
2022/09/16 03:47:51;;;;;;;12.90;4.20;;;11.00;99.90;;;;;;4991700;28;20093;-83
2022/09/16 03:50:19;;;;;;;10.18;3.88;;;11.00;99.90;;;;;;4993174;28;20426;-83
2022/09/16 03:52:45;;;;;;;9.98;3.47;;;11.00;99.90;;;;;;4991659;28;20489;-83
2022/09/16 03:55:10;;;;;;;14.13;4.28;;;11.00;99.90;;;;;;4991581;28;20041;-83
2022/09/16 03:57:37;;;;;;;12.20;4.50;;;11.00;99.90;;;;;;4991589;28;20030;-83
2022/09/16 04:00:04;;;;;;;6.10;3.60;;;11.00;99.90;;;;;;4991617;28;20073;-82
2022/09/16 04:02:37;;;;;;;13.02;4.00;;;11.00;99.90;;;;;;4993268;28;20177;-83
2022/09/16 04:05:03;;;;;;;10.90;3.70;;;11.00;99.90;;;;;;4991999;28;20109;-83
2022/09/16 04:07:32;;;;;;;10.55;3.75;;;11.00;99.90;;;;;;4992095;28;20037;-83
2022/09/16 04:09:58;;;;;;;10.55;3.60;;;11.00;99.90;;;;;;4991539;28;20174;-83
2022/09/16 04:12:23;;;;;;;8.63;3.25;;;10.90;99.90;;;;;;5008221;28;20125;-83
2022/09/16 04:14:49;;;;;;;8.18;3.63;;;10.90;99.90;;;;;;4991584;28;20037;-83
2022/09/16 04:17:15;;;;;;;6.72;2.97;;;11.00;99.90;;;;;;4992032;28;20112;-83
2022/09/16 04:19:41;;;;;;;9.55;3.88;;;10.90;99.90;;;;;;4991845;28;20057;-83
2022/09/16 04:22:06;;;;;;;10.20;2.65;;;10.90;99.90;;;;;;4993252;28;20023;-83
2022/09/16 04:24:32;;;;;;;9.35;3.05;;;10.90;99.90;;;;;;5008061;28;20105;-83
2022/09/16 04:26:59;;;;;;;19.15;3.53;;;10.90;99.90;;;;;;4992107;28;20056;-83
2022/09/16 04:29:24;;;;;;;9.73;3.65;;;10.90;99.90;;;;;;4992255;28;20031;-83
2022/09/16 04:31:50;;;;;;;6.10;3.38;;;10.90;99.90;;;;;;4992179;28;20105;-83
2022/09/16 04:34:16;;;;;;;12.00;3.90;;;10.90;99.90;;;;;;4991989;28;20033;-84
2022/09/16 04:36:41;;;;;;;9.82;3.15;;;10.90;99.90;;;;;;4995192;28;20040;-83
2022/09/16 04:39:07;;;;;;;8.55;3.20;;;10.90;99.90;;;;;;4995378;28;20030;-83
2022/09/16 04:41:45;;;;;;;11.05;3.40;;;10.90;99.90;;;;;;4995114;28;20033;-83
2022/09/16 04:44:10;;;;;;;13.20;3.75;;;10.90;99.90;;;;;;4987815;28;20482;-83
2022/09/16 04:46:36;;;;;;;8.80;3.25;;;10.80;99.90;;;;;;4995166;28;20124;-83
2022/09/16 04:49:02;;;;;;;9.23;2.90;;;10.80;99.90;;;;;;4994876;28;20030;-83
2022/09/16 04:51:28;;;;;;;10.90;3.85;;;10.80;99.90;;;;;;4994700;28;20456;-83
2022/09/16 04:53:55;;;;;;;9.90;3.25;;;10.80;99.90;;;;;;4994713;28;20038;-83
2022/09/16 04:56:27;;;;;;;10.73;3.03;;;10.80;99.90;;;;;;4995308;28;20555;-83
2022/09/16 04:59:48;;;;;;;9.75;3.50;;;10.80;99.90;;;;;;4994945;28;20129;-83
2022/09/16 05:02:14;;;;;;;11.82;3.53;;;10.80;99.90;;;;;;4989479;28;20041;-83
2022/09/16 05:04:40;;;;;;;7.60;3.92;;;10.80;99.90;;;;;;4994629;28;20034;-84
2022/09/16 05:07:06;;;;;;;9.23;4.13;;;10.80;99.90;;;;;;4996219;28;20101;-84
2022/09/16 05:09:31;;;;;;;7.47;3.60;;;10.80;99.90;;;;;;4994932;28;20045;-84
2022/09/16 05:11:57;;;;;;;19.10;3.67;;;10.70;99.90;;;;;;4994965;28;20035;-84
2022/09/16 05:14:23;;;;;;;7.57;3.15;;;10.70;99.90;;;;;;5009694;28;20085;-84
2022/09/16 05:16:49;;;;;;;16.92;3.67;;;10.70;99.90;;;;;;4994891;28;20792;-84
2022/09/16 05:19:14;;;;;;;9.57;3.35;;;10.70;99.90;;;;;;4995143;28;20033;-84
2022/09/16 05:21:41;;;;;;;5.60;3.03;;;10.70;99.90;;;;;;4982337;28;20125;-84
2022/09/16 05:24:08;;;;;;;14.30;3.35;;;10.70;99.90;;;;;;4993249;28;20038;-84
2022/09/16 05:26:36;;;;;;;10.73;3.40;;;10.70;99.90;;;;;;4973036;28;20360;-85
2022/09/16 05:29:04;;;;;;;9.90;3.97;;;10.80;99.90;;;;;;4991115;28;20026;-84
2022/09/16 05:31:33;;;;;;;6.78;3.65;;;10.80;99.90;;;;;;4974691;28;20026;-84
2022/09/16 05:34:03;;;;;;;12.25;4.00;;;10.80;99.90;;;;;;4974836;28;20041;-84
2022/09/16 05:36:31;;;;;;;5.63;3.20;;;10.80;99.90;;;;;;4978047;28;20092;-84
2022/09/16 05:38:57;;;;;;;11.18;3.83;;;10.80;99.90;;;;;;4989142;28;20095;-84
2022/09/16 05:41:23;;;;;;;10.63;4.28;;;10.90;99.90;;;;;;4992564;28;20113;-84
2022/09/16 05:43:49;;;;;;;10.35;4.38;;;10.90;99.90;;;;;;4989148;28;20186;-84
2022/09/16 05:46:20;;;;;;;11.95;3.92;;;10.90;99.90;;;;;;4993543;28;20080;-84
2022/09/16 05:48:47;;;;;;;8.63;3.73;;;10.90;99.90;;;;;;4990884;28;20035;-84
2022/09/16 05:51:16;;;;;;;9.27;4.13;;;10.90;99.90;;;;;;4993011;28;20116;-84
2022/09/16 05:53:41;;;;;;;4.80;3.30;;;10.80;99.90;;;;;;5000787;28;20035;-84
2022/09/16 05:56:11;;;;;;;13.07;3.65;;;10.80;99.90;;;;;;4992700;28;20497;-85
2022/09/16 05:58:38;;;;;;;17.13;4.10;;;10.90;99.90;;;;;;4977006;28;20038;-84
2022/09/16 06:01:09;;;;;;;12.82;3.88;;;10.90;99.90;;;;;;4976869;28;20031;-84
2022/09/16 06:03:36;;;;;;;8.25;3.70;;;10.80;99.90;;;;;;4993388;28;20018;-84
2022/09/16 06:06:03;;;;;;;9.23;3.85;;;10.80;99.90;;;;;;4992945;28;20042;-84
2022/09/16 06:08:30;;;;;;;8.90;3.70;;;10.80;99.90;;;;;;4976236;28;20038;-84
2022/09/16 06:10:56;;;;;;;13.55;4.30;;;10.80;99.90;;;;;;4989144;28;20037;-84
2022/09/16 06:13:22;;;;;;;15.77;4.10;;;10.90;99.90;;;;;;4983360;28;20038;-84
2022/09/16 06:15:50;;;;;;;13.40;3.83;;;11.00;99.90;;;;;;4979173;28;20023;-84
2022/09/16 06:18:17;;;;;;;8.65;4.72;;;11.10;99.90;;;;;;4999096;28;20068;-84
2022/09/16 06:20:44;;;;;;;15.60;3.95;;;11.20;99.90;;;;;;4980185;28;20057;-84
2022/09/16 06:23:10;;;;;;;9.57;3.78;;;11.20;99.90;;;;;;4992584;28;20031;-84
2022/09/16 06:25:36;;;;;;;14.20;3.97;;;11.30;99.90;;;;;;4994766;28;20079;-84
2022/09/16 06:28:02;;;;;;;9.88;4.15;;;11.30;99.90;;;;;;4970803;28;20022;-84
2022/09/16 06:30:28;;;;;;;11.15;3.25;;;11.30;99.90;;;;;;4993025;28;20041;-84
2022/09/16 06:32:54;;;;;;;10.00;3.15;;;11.40;99.90;;;;;;4993911;28;20105;-84
2022/09/16 06:35:19;;;;;;;10.15;3.85;;;11.40;99.90;;;;;;4992221;28;20104;-84
2022/09/16 06:37:45;;;;;;;10.35;3.47;;;11.50;99.90;;;;;;4968831;28;20030;-84
2022/09/16 06:40:11;;;;;;;9.63;3.25;;;11.40;99.90;;;;;;4991434;28;20065;-84
2022/09/16 06:42:37;;;;;;;12.45;3.80;;;11.50;99.90;;;;;;5001151;28;20033;-84
2022/09/16 06:45:03;;;;;;;6.82;3.28;;;11.60;99.90;;;;;;4987745;28;20026;-84
2022/09/16 06:47:32;;;;;;;8.82;3.20;;;11.70;99.90;;;;;;4981581;28;20057;-84
2022/09/16 06:49:58;;;;;;;11.68;3.10;;;11.80;99.90;;;;;;4971593;28;20363;-83
2022/09/16 06:52:24;;;;;;;9.18;3.22;;;11.90;99.90;;;;;;4990204;28;20034;-83
2022/09/16 06:54:50;;;;;;;14.38;3.90;;;11.90;99.90;;;;;;4984166;28;20046;-83
2022/09/16 06:57:19;;;;;;;14.25;3.33;;;12.10;99.90;;;;;;5000300;28;20030;-84
2022/09/16 06:59:45;;;;;;;6.47;3.30;;;12.10;99.90;;;;;;4996499;28;20042;-84
2022/09/16 07:02:11;;;;;;;10.70;3.25;;;12.10;99.90;;;;;;4993238;28;20022;-84
2022/09/16 07:04:37;;;;;;;11.65;3.50;;;12.20;99.90;;;;;;5008704;28;20034;-84
2022/09/16 07:07:03;;;;;;;12.90;4.40;;;12.10;99.90;;;;;;4993160;28;20094;-84
2022/09/16 07:09:29;;;;;;;7.95;3.53;;;12.20;99.90;;;;;;4996563;28;20043;-84
2022/09/16 07:11:55;;;;;;;8.13;3.28;;;12.10;99.90;;;;;;4993190;28;20041;-84
2022/09/16 07:14:21;;;;;;;6.82;3.33;;;12.00;99.90;;;;;;4991592;28;20068;-84
2022/09/16 07:16:47;;;;;;;12.27;3.42;;;12.10;99.90;;;;;;4993259;28;20034;-84
2022/09/16 07:19:13;;;;;;;8.68;3.42;;;12.20;99.90;;;;;;4991648;28;20026;-84
2022/09/16 07:21:40;;;;;;;10.98;3.45;;;12.30;99.90;;;;;;4991569;28;20497;-83
2022/09/16 07:24:08;;;;;;;8.68;3.38;;;12.40;99.90;;;;;;4991600;28;20018;-84
2022/09/16 07:26:36;;;;;;;9.35;3.50;;;12.50;99.90;;;;;;4992216;28;20046;-83
2022/09/16 07:29:05;;;;;;;13.77;3.35;;;12.80;99.90;;;;;;4992012;28;20033;-83
2022/09/16 07:35:18;;;;;;;10.50;3.60;;;13.00;99.90;;;;;;4989850;28;20585;-84
2022/09/16 07:37:44;;;;;;;8.32;3.70;;;13.10;99.90;;;;;;4974359;28;20121;-83
2022/09/16 07:40:12;;;;;;;11.10;3.45;;;12.90;99.90;;;;;;4989404;28;20033;-84
2022/09/16 07:42:38;;;;;;;8.52;4.05;;;12.90;99.90;;;;;;4987545;28;20120;-84
2022/09/16 07:45:05;;;;;;;9.55;3.60;;;12.90;99.90;;;;;;5005477;28;20042;-84
2022/09/16 07:47:31;;;;;;;12.65;4.75;;;12.90;99.90;;;;;;4974208;28;20561;-84
2022/09/16 07:49:56;;;;;;;10.23;4.00;;;12.90;99.90;;;;;;4986588;28;20125;-84
2022/09/16 07:52:28;;;;;;;13.38;4.22;;;13.00;99.90;;;;;;4990116;28;20038;-83
2022/09/16 07:54:54;;;;;;;12.70;4.10;;;13.00;99.90;;;;;;4990117;28;20089;-84
2022/09/16 07:57:20;;;;;;;10.50;4.03;;;12.80;99.90;;;;;;4987745;28;20168;-84
2022/09/16 07:59:46;;;;;;;9.60;4.10;;;12.80;99.90;;;;;;4973947;28;20474;-84
2022/09/16 08:02:12;;;;;;;11.68;4.40;;;12.80;99.90;;;;;;4989579;28;20030;-83
2022/09/16 08:04:38;;;;;;;8.65;3.97;;;12.80;99.90;;;;;;4988684;28;20061;-84
2022/09/16 08:07:05;;;;;;;10.90;5.32;;;12.90;99.90;;;;;;4991973;28;20463;-84
2022/09/16 08:09:31;;;;;;;11.20;4.63;;;13.00;99.90;;;;;;4992438;28;20462;-84
2022/09/16 08:11:57;;;;;;;8.55;4.18;;;13.00;99.90;;;;;;4992056;28;20030;-84
2022/09/16 08:14:22;;;;;;;9.10;4.57;;;12.90;99.90;;;;;;4994986;28;20081;-84
2022/09/16 08:16:50;;;;;;;17.40;5.53;;;12.80;99.90;;;;;;4995395;28;20031;-84
2022/09/16 08:19:16;;;;;;;14.98;4.65;;;12.80;99.90;;;;;;4993022;28;20125;-84
2022/09/16 08:21:42;;;;;;;10.73;4.43;;;13.00;99.90;;;;;;4995048;28;20062;-84
2022/09/16 08:24:09;;;;;;;10.50;4.38;;;12.90;99.90;;;;;;4994988;28;20069;-84
2022/09/16 08:26:35;;;;;;;12.07;4.88;;;12.90;99.90;;;;;;4976756;28;20035;-84
2022/09/16 08:29:00;;;;;;;14.93;5.22;;;12.80;99.90;;;;;;4995396;28;20097;-84
2022/09/16 08:31:26;;;;;;;7.78;3.90;;;12.70;99.90;;;;;;4996568;28;20105;-84
2022/09/16 08:37:40;;;;;;;12.93;3.15;;;13.00;99.90;;;;;;4997517;28;20552;-84
2022/09/16 08:40:06;;;;;;;11.45;3.75;;;13.30;99.90;;;;;;4994487;28;20034;-84
2022/09/16 08:42:37;;;;;;;10.63;3.60;;;13.20;99.90;;;;;;4995082;28;20045;-84
2022/09/16 08:45:03;;;;;;;;;;;13.10;99.90;;;;;;4996975;28;20031;-83
2022/09/16 08:48:26;;;;;;;6.60;2.70;;;13.20;99.90;;;;;;4978906;28;19913;-84
2022/09/16 08:50:57;;;;;;;9.80;2.45;;;13.30;99.90;;;;;;4994887;28;20518;-83
2022/09/16 08:53:44;;;;;;;5.78;2.67;;;13.20;99.90;;;;;;4994512;28;20042;-84
2022/09/16 08:56:15;;;;;;;8.40;2.47;;;13.00;99.90;;;;;;4994879;28;20092;-84
2022/09/16 08:59:02;;;;;;;11.55;2.72;;;12.90;99.90;;;;;;5011671;28;20134;-85
2022/09/16 09:02:09;;;;;;;9.50;2.50;;;12.70;99.90;;;;;;4978772;28;20030;-89
2022/09/16 09:04:35;;;;;;;9.15;3.05;;;12.80;99.90;;;;;;4991687;28;20038;-85
2022/09/16 09:07:06;;;;;;;9.65;2.78;;;13.00;99.90;;;;;;4995121;28;20029;-85
2022/09/16 09:09:57;;;;;;;6.05;2.33;;;13.40;99.90;;;;;;4995022;28;20030;-84
2022/09/16 09:12:38;;;;;;;12.02;2.30;;;13.70;99.90;;;;;;4994836;28;20022;-84
2022/09/16 09:15:25;;;;;;;6.32;2.13;;;14.00;99.90;;;;;;4977529;28;20059;-84
2022/09/16 09:18:03;;;;;;;12.95;2.70;;;14.40;99.90;;;;;;5010451;28;20045;-85
2022/09/16 09:20:44;;;;;;;7.65;2.20;;;15.40;99.90;;;;;;4977120;28;20050;-85
2022/09/16 09:23:27;;;;;;;4.80;2.53;;;16.20;99.90;;;;;;4994323;28;20026;-85
2022/09/16 09:26:27;;;;;;;4.78;1.65;;;16.30;99.90;;;;;;5010474;28;20035;-85
2022/09/16 09:29:15;;;;;;;7.18;2.25;;;16.10;99.90;;;;;;4993796;28;20394;-84
2022/09/16 09:32:15;;;;;;;6.95;2.17;;;15.60;99.90;;;;;;4977566;28;20129;-85
2022/09/16 09:34:48;;;;;;;3.67;1.75;;;14.90;99.90;;;;;;4992417;28;20041;-85
2022/09/16 09:37:17;;;;;;;11.93;2.17;;;14.90;99.90;;;;;;4977995;28;20084;-85
2022/09/16 09:40:08;;;;;;;7.65;2.30;;;15.00;99.90;;;;;;4977521;28;20042;-85
2022/09/16 09:42:50;;;;;;;2.97;1.50;;;15.00;99.90;;;;;;4977750;28;20031;-85
2022/09/16 09:45:29;;;;;;;7.22;2.20;;;15.40;99.90;;;;;;4992933;28;20047;-85
2022/09/16 09:48:01;;;;;;;6.20;2.03;;;15.40;99.90;;;;;;4993141;28;20040;-85
2022/09/16 09:50:39;;;;;;;8.07;2.20;;;15.00;99.90;;;;;;4994038;28;20065;-84
2022/09/16 09:53:27;;;;;;;14.80;2.50;;;14.70;99.90;;;;;;4993938;28;20030;-86
2022/09/16 09:56:12;;;;;;;11.52;2.22;;;14.80;99.90;;;;;;4994229;28;20497;-85
2022/09/16 09:58:44;;;;;;;7.55;2.03;;;14.80;99.90;;;;;;4994363;28;20045;-84
2022/09/16 10:01:10;;;;;;;7.57;2.17;;;14.70;99.90;;;;;;4994159;28;20808;-85
2022/09/16 10:03:37;;;;;;;8.57;2.05;;;15.10;99.90;;;;;;4993369;28;20077;-85
2022/09/16 10:06:03;;;;;;;5.93;1.98;;;15.90;99.90;;;;;;4993332;28;20026;-85
2022/09/16 10:08:39;;;;;;;12.75;2.20;;;16.00;99.90;;;;;;4993735;28;20041;-84
2022/09/16 10:11:16;;;;;;;10.43;2.33;;;15.40;99.90;;;;;;4977864;28;20031;-85
2022/09/16 10:14:04;;;;;;;5.78;2.42;;;14.70;99.90;;;;;;4993626;28;20041;-85
2022/09/16 10:16:36;;;;;;;8.55;2.28;;;14.40;99.90;;;;;;4993755;28;20038;-85
2022/09/16 10:19:22;;;;;;;8.07;2.08;;;14.40;99.90;;;;;;5010029;28;20041;-84
2022/09/16 10:21:53;;;;;;;12.43;2.20;;;14.40;99.90;;;;;;4994488;28;20386;-87
2022/09/16 10:24:28;;;;;;;5.47;2.90;;;14.40;99.90;;;;;;4994481;28;20045;-87
2022/09/16 10:26:55;;;;;;;3.47;2.20;;;13.90;99.90;;;;;;4978251;28;20041;-87
2022/09/16 10:29:20;;;;;;;8.55;2.30;;;13.70;99.90;;;;;;4994384;28;20173;-86
2022/09/16 10:31:47;;;;;;;3.30;1.58;;;13.90;99.90;;;;;;4993223;28;20066;-87
2022/09/16 10:34:30;;;;;;;7.03;2.05;;;15.10;99.90;;;;;;4994105;28;20129;-87
2022/09/16 10:37:17;;;;;;;13.38;2.03;;;16.50;99.90;;;;;;4977896;28;20084;-88
2022/09/16 10:39:52;;;;;;;10.52;2.38;;;16.50;99.90;;;;;;4993306;28;20045;-87
2022/09/16 10:42:27;;;;;;;5.43;1.73;;;15.70;99.90;;;;;;4994052;28;20022;-87
2022/09/16 10:45:07;;;;;;;7.10;2.28;;;14.90;99.90;;;;;;4993822;28;20077;-87
2022/09/16 10:47:35;;;;;;;3.33;1.77;;;14.50;99.90;;;;;;5010497;28;20497;-87
2022/09/16 10:50:04;;;;;;;5.13;1.83;;;14.40;99.90;;;;;;4993736;28;20462;-87
2022/09/16 10:52:42;;;;;;;7.40;1.40;;;14.40;99.90;;;;;;4993531;28;20042;-87
2022/09/16 10:55:23;;;;;;;10.95;2.03;;;14.60;99.90;;;;;;4993772;28;20084;-87
2022/09/16 10:57:49;;;;;;;12.30;2.53;;;15.00;99.90;;;;;;4977180;28;20038;-87
2022/09/16 11:00:33;;;;;;;4.00;1.70;;;15.40;99.90;;;;;;4993489;28;20065;-88
2022/09/16 11:03:21;;;;;;;3.80;2.08;;;16.20;99.90;;;;;;4993480;28;20048;-88
2022/09/16 11:06:05;;;;;;;4.28;1.73;;;17.00;99.90;;;;;;4994890;28;20022;-88
2022/09/16 11:09:12;;;;;;;6.50;1.80;;;18.00;99.90;;;;;;5010183;28;20157;-88
2022/09/16 11:11:38;;;;;;;4.43;1.38;;;18.50;99.90;;;;;;4976220;28;20065;-86
2022/09/16 11:14:16;;;;;;;4.55;1.35;;;17.60;99.90;;;;;;4993398;28;20030;-87
2022/09/16 11:16:44;;;;;;;12.13;1.65;;;16.40;99.90;;;;;;4977625;28;20096;-88
2022/09/16 11:19:28;;;;;;;6.20;1.70;;;15.60;99.90;;;;;;4993365;28;20097;-88
2022/09/16 11:22:09;;;;;;;3.08;1.33;;;15.50;99.90;;;;;;4993477;28;20030;-87
2022/09/16 11:24:59;;;;;;;6.70;1.40;;;15.20;99.90;;;;;;4993476;28;20378;-86
2022/09/16 11:27:49;;;;;;;3.70;1.67;;;15.60;99.90;;;;;;4993421;28;20030;-87
2022/09/16 11:30:21;;;;;;;7.72;1.80;;;16.40;99.90;;;;;;4993433;28;20118;-87
2022/09/16 11:33:05;;;;;;;5.75;1.45;;;16.80;99.90;;;;;;4994871;28;20034;-88
2022/09/16 11:35:57;;;;;;;5.38;2.00;;;16.40;99.90;;;;;;4993208;28;20042;-86
2022/09/16 11:38:40;;;;;;;4.85;1.42;;;16.00;99.90;;;;;;4994060;28;20034;-87
2022/09/16 11:41:09;;;;;;;5.07;1.83;;;16.40;99.90;;;;;;4996080;28;20568;-87
2022/09/16 11:43:59;;;;;;;3.35;1.30;;;16.40;99.90;;;;;;4979319;28;20073;-88
2022/09/16 11:46:58;;;;;;;3.22;1.38;;;16.20;99.90;;;;;;4995043;28;20068;-87
2022/09/16 11:49:43;;;;;;;8.80;1.60;;;15.70;99.90;;;;;;4995910;28;20036;-87
2022/09/16 11:52:15;;;;;;;4.93;1.70;;;15.60;99.90;;;;;;4995760;28;20093;-88
2022/09/16 11:55:06;;;;;;;4.78;1.35;;;15.40;99.90;;;;;;4995879;28;20362;-87
2022/09/16 11:57:38;;;;;;;5.20;1.63;;;15.10;99.90;;;;;;4995826;28;20030;-87
2022/09/16 12:00:09;;;;;;;4.47;1.50;;;14.90;99.90;;;;;;4995625;28;20034;-86
2022/09/16 12:03:05;;;;;;;5.95;1.20;;;15.00;99.90;;;;;;4996521;28;20060;-88
2022/09/16 12:05:44;;;;;;;8.40;1.42;;;16.00;99.90;;;;;;5013576;28;20085;-87
2022/09/16 12:08:43;;;;;;;8.18;1.35;;;17.10;99.90;;;;;;4995691;28;20038;-87
2022/09/16 12:11:23;;;;;;;2.35;1.13;;;17.30;99.90;;;;;;4995302;28;20057;-87
2022/09/16 12:13:56;;;;;;;6.30;1.45;;;17.30;99.90;;;;;;4979064;28;20397;-88
2022/09/16 12:16:41;;;;;;;3.70;1.20;;;17.20;99.90;;;;;;4995408;28;20405;-87
2022/09/16 12:19:35;;;;;;;5.93;1.52;;;17.30;99.90;;;;;;4995002;28;20041;-88
2022/09/16 12:22:05;;;;;;;6.50;1.10;;;17.50;99.90;;;;;;4987559;28;20490;-88
2022/09/16 12:24:58;;;;;;;5.22;1.70;;;17.50;99.90;;;;;;5011422;28;20030;-88
2022/09/16 12:27:53;;;;;;;4.47;1.50;;;17.00;99.90;;;;;;4995766;28;20088;-87
2022/09/16 12:30:22;;;;;;;2.50;1.45;;;16.40;99.90;;;;;;4995772;28;20065;-87
2022/09/16 12:33:09;;;;;;;3.10;1.50;;;16.50;99.90;;;;;;4995428;28;20030;-88
2022/09/16 12:35:44;;;;;;;3.88;1.48;;;16.40;99.90;;;;;;4979355;28;20068;-86
2022/09/16 12:38:17;;;;;;;4.18;1.35;;;16.40;99.90;;;;;;4995758;28;20037;-87
2022/09/16 12:40:54;;;;;;;6.85;1.48;;;16.50;99.90;;;;;;4995725;28;20088;-88
2022/09/16 12:43:47;;;;;;;4.68;1.50;;;16.30;99.90;;;;;;4995639;28;20527;-87
2022/09/16 12:46:35;;;;;;;6.78;1.60;;;15.70;99.90;;;;;;4979341;28;20545;-86
2022/09/16 12:49:30;;;;;;;2.17;1.35;;;14.90;99.90;;;;;;4979157;28;20033;-87
2022/09/16 12:52:23;;;;;;;7.05;1.48;;;14.30;99.90;;;;;;4979157;28;20465;-87
2022/09/16 12:55:28;;;;;;;6.35;1.75;;;13.60;99.90;;;;;;4979385;28;20581;-87
2022/09/16 12:58:10;;;;;;;4.00;1.25;;;12.70;99.90;;;;;;4905780;29;20432;-88
2022/09/16 13:00:52;;;;;;;3.80;1.33;;;12.30;99.90;;;;;;4921541;29;20036;-87
2022/09/16 13:03:23;;;;;;;5.03;1.20;;;12.00;99.90;;;;;;4965192;28;20041;-86
2022/09/16 13:05:50;;;;;;;;;;;11.80;99.90;;;;;;5000129;28;20481;-89
2022/09/16 13:08:30;;;;;;;2.30;1.10;;;11.70;99.90;;;;;;4999381;28;19909;-88
2022/09/16 13:11:06;;;;;;;4.60;1.23;;;11.70;99.90;;;;;;4999029;28;20500;-87
2022/09/16 13:13:38;;;;;;;2.78;1.50;;;12.10;99.90;;;;;;5016691;28;20382;-87
2022/09/16 13:16:06;;;;;;;6.80;1.50;;;12.90;99.90;;;;;;4998820;28;20084;-86
2022/09/16 13:18:49;;;;;;;2.67;1.10;;;13.90;99.90;;;;;;4998720;28;20029;-88
2022/09/16 13:21:17;;;;;;;3.30;1.10;;;14.60;99.90;;;;;;4982688;28;20040;-89
2022/09/16 13:23:47;;;;;;;4.32;1.30;;;14.60;99.90;;;;;;4982361;28;20397;-87
2022/09/16 13:26:13;;;;;;;2.70;1.33;;;14.50;99.90;;;;;;4998537;28;20026;-87
2022/09/16 13:28:45;;;;;;;2.03;1.25;;;14.50;99.90;;;;;;4998683;28;20120;-88